Time;durP1;ratioP1;P1;durP2;ratioP2;P2;SDS_P1;SDS_P2;PMS_P1;PMS_P2;Temp;Humidity;BMP_temperature;BMP_pressure;BME280_temperature;BME280_humidity;BME280_pressure;Samples;Min_cycle;Max_cycle;Signal;HPM_P1;HPM_P2
2022/01/14 00:00:06;;;;;;;23.83;16.43;;;;;;;;;;6160952;23;20167;-85
2022/01/14 00:02:35;;;;;;;24.40;17.87;;;;;;;;;;6160145;23;20166;-85
2022/01/14 00:05:02;;;;;;;24.53;17.40;;;;;;;;;;6160676;23;20191;-85
2022/01/14 00:07:32;;;;;;;23.50;15.90;;;;;;;;;;6159266;23;20194;-85
2022/01/14 00:09:59;;;;;;;24.83;16.60;;;;;;;;;;6160680;23;20198;-85
2022/01/14 00:12:36;;;;;;;22.73;17.03;;;;;;;;;;6160511;23;20175;-85
2022/01/14 00:15:23;;;;;;;25.23;17.23;;;;;;;;;;6161003;23;20170;-86
2022/01/14 00:17:53;;;;;;;24.60;17.33;;;;;;;;;;6159307;23;20261;-86
2022/01/14 00:20:21;;;;;;;22.33;16.23;;;;;;;;;;6160420;23;20155;-85
2022/01/14 00:22:55;;;;;;;26.37;17.10;;;;;;;;;;6161347;23;20249;-85
2022/01/14 00:33:42;;;;;;;24.47;16.60;;;;;;;;;;6158976;23;20210;-83
2022/01/14 00:36:09;;;;;;;22.50;16.60;;;;;;;;;;6159283;23;20189;-85
2022/01/14 00:38:38;;;;;;;23.73;17.20;;;;;;;;;;6159317;23;20210;-86
2022/01/14 00:41:05;;;;;;;26.53;17.70;;;;;;;;;;6159567;23;20175;-85
2022/01/14 00:43:37;;;;;;;28.33;18.03;;;;;;;;;;6159696;23;20242;-85
2022/01/14 00:46:10;;;;;;;26.50;18.37;;;;;;;;;;6159617;23;20218;-85
2022/01/14 00:48:38;;;;;;;25.23;17.63;;;;;;;;;;6158948;23;20734;-85
2022/01/14 00:51:07;;;;;;;22.63;16.77;;;;;;;;;;6158896;23;20175;-85
2022/01/14 00:53:35;;;;;;;24.00;17.57;;;;;;;;;;6160095;23;20525;-85
2022/01/14 00:56:19;;;;;;;24.07;17.43;;;;;;;;;;6160152;23;20167;-85
2022/01/14 01:01:33;;;;;;;26.57;17.83;;;;;;;;;;6159492;23;20158;-85
2022/01/14 01:04:00;;;;;;;30.60;18.50;;;;;;;;;;6160073;23;20177;-85
2022/01/14 01:06:29;;;;;;;29.10;19.70;;;;;;;;;;6159205;23;20187;-85
2022/01/14 01:08:57;;;;;;;29.10;20.20;;;;;;;;;;6158544;23;20205;-84
2022/01/14 01:11:31;;;;;;;26.43;18.40;;;;;;;;;;6158904;23;20175;-85
2022/01/14 01:14:05;;;;;;;26.87;17.77;;;;;;;;;;6158615;23;20175;-85
2022/01/14 01:16:32;;;;;;;25.43;17.60;;;;;;;;;;6159090;23;20260;-84
2022/01/14 01:18:59;;;;;;;26.20;18.37;;;;;;;;;;6157711;23;20206;-86
2022/01/14 01:21:27;;;;;;;24.87;18.33;;;;;;;;;;6158596;23;20241;-84
2022/01/14 01:23:54;;;;;;;27.20;18.07;;;;;;;;;;6158833;23;20178;-84
2022/01/14 01:26:29;;;;;;;27.27;17.67;;;;;;;;;;6159409;23;20222;-85
2022/01/14 01:29:07;;;;;;;28.40;18.80;;;;;;;;;;6159814;23;20206;-84
2022/01/14 01:31:39;;;;;;;26.57;18.80;;;;;;;;;;6160012;23;20193;-85
2022/01/14 01:34:07;;;;;;;25.97;17.47;;;;;;;;;;6162385;23;20171;-85
2022/01/14 01:36:35;;;;;;;28.77;19.27;;;;;;;;;;6172137;23;20206;-82
2022/01/14 01:39:03;;;;;;;27.23;18.07;;;;;;;;;;6170163;23;20191;-85
2022/01/14 01:41:35;;;;;;;23.90;17.87;;;;;;;;;;6158745;23;20178;-85
2022/01/14 01:44:07;;;;;;;26.60;17.90;;;;;;;;;;6159538;23;20198;-86
2022/01/14 01:46:37;;;;;;;27.47;18.50;;;;;;;;;;6159217;23;20190;-84
2022/01/14 01:49:05;;;;;;;26.47;18.00;;;;;;;;;;6158843;23;20218;-84
2022/01/14 01:51:32;;;;;;;27.13;18.33;;;;;;;;;;6159112;23;20170;-85
2022/01/14 01:53:59;;;;;;;25.43;16.97;;;;;;;;;;6159985;23;20201;-85
2022/01/14 01:56:27;;;;;;;26.03;18.60;;;;;;;;;;6159138;23;20178;-85
2022/01/14 01:58:56;;;;;;;29.10;18.53;;;;;;;;;;6159118;23;20252;-85
2022/01/14 02:01:25;;;;;;;24.47;17.20;;;;;;;;;;6159525;23;20181;-85
2022/01/14 02:03:54;;;;;;;23.33;16.80;;;;;;;;;;6160394;23;20241;-84
2022/01/14 02:06:22;;;;;;;26.50;17.87;;;;;;;;;;6162926;23;20261;-87
2022/01/14 02:08:50;;;;;;;26.00;17.10;;;;;;;;;;6161798;23;20197;-85
2022/01/14 02:11:21;;;;;;;24.10;16.67;;;;;;;;;;6163529;23;20198;-85
2022/01/14 02:13:50;;;;;;;23.33;16.27;;;;;;;;;;6160028;23;20169;-86
2022/01/14 02:16:31;;;;;;;22.83;16.57;;;;;;;;;;6160151;23;20171;-85
2022/01/14 02:19:16;;;;;;;25.43;16.27;;;;;;;;;;6160908;23;20213;-86
2022/01/14 02:24:55;;;;;;;22.00;16.53;;;;;;;;;;6156660;23;20158;-84
2022/01/14 02:27:25;;;;;;;23.67;15.60;;;;;;;;;;6156156;23;20225;-83
2022/01/14 02:29:53;;;;;;;22.07;16.90;;;;;;;;;;6156817;23;20171;-85
2022/01/14 02:32:20;;;;;;;22.23;15.97;;;;;;;;;;6157572;23;20179;-85
2022/01/14 02:34:47;;;;;;;22.93;16.10;;;;;;;;;;6155953;23;20237;-85
2022/01/14 02:37:19;;;;;;;23.83;15.67;;;;;;;;;;6154159;23;20175;-85
2022/01/14 02:39:47;;;;;;;23.47;16.47;;;;;;;;;;6156305;23;20183;-85
2022/01/14 02:42:15;;;;;;;23.40;15.93;;;;;;;;;;6157113;23;20619;-84
2022/01/14 02:44:42;;;;;;;25.93;16.70;;;;;;;;;;6156506;23;20171;-84
2022/01/14 02:47:11;;;;;;;22.83;15.93;;;;;;;;;;6155446;23;20202;-84
2022/01/14 02:49:39;;;;;;;24.00;18.13;;;;;;;;;;6155186;23;20179;-85
2022/01/14 02:52:08;;;;;;;22.53;16.17;;;;;;;;;;6157053;23;20198;-85
2022/01/14 02:55:02;;;;;;;24.67;16.47;;;;;;;;;;6156794;23;20230;-84
2022/01/14 02:57:31;;;;;;;21.87;15.27;;;;;;;;;;6156015;23;20195;-84
2022/01/14 03:00:02;;;;;;;23.10;16.00;;;;;;;;;;6157066;23;20174;-84
2022/01/14 03:02:30;;;;;;;23.20;15.17;;;;;;;;;;6157159;23;20222;-83
2022/01/14 03:05:00;;;;;;;22.23;15.37;;;;;;;;;;6156480;23;20174;-84
2022/01/14 03:07:28;;;;;;;21.33;15.80;;;;;;;;;;6155552;23;20201;-84
2022/01/14 03:10:12;;;;;;;;;;;;;;;;;;;;;
2022/01/14 03:12:41;;;;;;;24.00;16.33;;;;;;;;;;6158333;23;20179;-84
2022/01/14 03:15:11;;;;;;;23.60;15.50;;;;;;;;;;6158935;23;20170;-85
2022/01/14 03:17:44;;;;;;;22.17;16.40;;;;;;;;;;6157581;23;20190;-84
2022/01/14 03:20:36;;;;;;;24.10;16.47;;;;;;;;;;6158384;23;20174;-84
2022/01/14 03:23:05;;;;;;;23.57;15.93;;;;;;;;;;6157628;23;20262;-83
2022/01/14 03:25:48;;;;;;;22.03;14.83;;;;;;;;;;6158320;23;20179;-84
2022/01/14 03:28:16;;;;;;;22.47;15.47;;;;;;;;;;6158238;23;20190;-85
2022/01/14 03:30:48;;;;;;;24.53;16.17;;;;;;;;;;6159131;23;20226;-85
2022/01/14 03:33:16;;;;;;;23.17;16.27;;;;;;;;;;6158495;23;20175;-85
2022/01/14 03:35:44;;;;;;;22.67;16.83;;;;;;;;;;6159159;23;20227;-86
2022/01/14 03:38:14;;;;;;;26.00;18.13;;;;;;;;;;6158319;23;20195;-84
2022/01/14 03:40:43;;;;;;;27.13;17.67;;;;;;;;;;6158561;23;20181;-84
2022/01/14 03:43:11;;;;;;;25.53;17.37;;;;;;;;;;6158546;23;20194;-85
2022/01/14 03:45:41;;;;;;;26.07;19.17;;;;;;;;;;6159012;23;20257;-85
2022/01/14 03:48:09;;;;;;;26.93;18.67;;;;;;;;;;6157042;23;20186;-85
2022/01/14 03:50:36;;;;;;;25.73;18.27;;;;;;;;;;6158159;23;20175;-84
2022/01/14 03:53:04;;;;;;;26.10;19.40;;;;;;;;;;6159266;23;20177;-85
2022/01/14 03:55:31;;;;;;;29.30;20.23;;;;;;;;;;6156856;23;20186;-83
2022/01/14 03:58:03;;;;;;;27.03;19.17;;;;;;;;;;6158707;23;20195;-84
2022/01/14 04:00:30;;;;;;;25.63;18.47;;;;;;;;;;6159945;23;20225;-84
2022/01/14 04:03:01;;;;;;;32.27;21.00;;;;;;;;;;6159574;23;20210;-85
2022/01/14 04:05:29;;;;;;;30.17;20.43;;;;;;;;;;6159860;23;20173;-85
2022/01/14 04:07:59;;;;;;;28.80;19.70;;;;;;;;;;6158522;23;20195;-84
2022/01/14 04:10:27;;;;;;;28.27;20.23;;;;;;;;;;6159658;23;20171;-83
2022/01/14 04:12:59;;;;;;;33.53;20.90;;;;;;;;;;6159842;23;20175;-85
2022/01/14 04:15:37;;;;;;;32.97;21.37;;;;;;;;;;6160726;23;20249;-85
2022/01/14 04:18:07;;;;;;;28.83;20.90;;;;;;;;;;6159596;23;20199;-84
2022/01/14 04:20:36;;;;;;;30.90;20.87;;;;;;;;;;6160653;23;20201;-84
2022/01/14 04:23:04;;;;;;;29.10;21.40;;;;;;;;;;6161810;23;20171;-84
2022/01/14 04:25:32;;;;;;;31.73;20.30;;;;;;;;;;6162350;23;20186;-85
2022/01/14 04:28:00;;;;;;;28.90;19.90;;;;;;;;;;6161755;23;20198;-84
2022/01/14 04:30:31;;;;;;;29.87;20.23;;;;;;;;;;6162196;23;20175;-84
2022/01/14 04:32:58;;;;;;;27.33;20.30;;;;;;;;;;6161395;23;20284;-84
2022/01/14 04:35:28;;;;;;;30.37;20.80;;;;;;;;;;6160988;23;20181;-84
2022/01/14 04:37:56;;;;;;;26.97;19.20;;;;;;;;;;6160161;23;20194;-85
2022/01/14 04:40:24;;;;;;;27.83;19.50;;;;;;;;;;6159867;23;20174;-84
2022/01/14 04:42:52;;;;;;;27.20;20.00;;;;;;;;;;6160643;23;20183;-85
2022/01/14 04:45:29;;;;;;;24.33;18.13;;;;;;;;;;6166998;23;20246;-84
2022/01/14 04:47:59;;;;;;;27.23;18.83;;;;;;;;;;6170673;23;20294;-83
2022/01/14 04:50:27;;;;;;;26.90;19.37;;;;;;;;;;6168485;23;20175;-85
2022/01/14 04:52:54;;;;;;;29.67;19.40;;;;;;;;;;6158820;23;20244;-85
2022/01/14 04:55:23;;;;;;;27.77;20.23;;;;;;;;;;6158377;23;20181;-84
2022/01/14 04:57:50;;;;;;;27.27;18.77;;;;;;;;;;6158043;23;20191;-85
2022/01/14 05:00:19;;;;;;;29.47;19.47;;;;;;;;;;6157928;23;20174;-84
2022/01/14 05:02:46;;;;;;;28.17;19.57;;;;;;;;;;6158043;23;20174;-84
2022/01/14 05:05:17;;;;;;;27.30;19.43;;;;;;;;;;6157496;23;20171;-84
2022/01/14 05:07:46;;;;;;;26.57;19.27;;;;;;;;;;6155631;23;20254;-84
2022/01/14 05:10:22;;;;;;;28.30;19.07;;;;;;;;;;6157116;23;20181;-84
2022/01/14 05:12:50;;;;;;;27.47;19.57;;;;;;;;;;6157005;23;20166;-85
2022/01/14 05:15:18;;;;;;;25.83;18.63;;;;;;;;;;6157118;23;20175;-83
2022/01/14 05:17:49;;;;;;;27.40;19.03;;;;;;;;;;6157036;23;20246;-85
2022/01/14 05:20:19;;;;;;;28.00;20.33;;;;;;;;;;6146958;23;20202;-88
2022/01/14 05:22:47;;;;;;;26.87;19.70;;;;;;;;;;6155580;23;20203;-88
2022/01/14 05:25:16;;;;;;;26.47;19.13;;;;;;;;;;6155036;23;20175;-88
2022/01/14 05:27:44;;;;;;;29.40;20.43;;;;;;;;;;6155426;23;20194;-88
2022/01/14 05:32:57;;;;;;;26.33;19.37;;;;;;;;;;6153087;23;20174;-88
2022/01/14 05:35:26;;;;;;;30.63;20.23;;;;;;;;;;6155768;23;20174;-88
2022/01/14 05:37:54;;;;;;;29.63;21.10;;;;;;;;;;6156444;23;20177;-88
2022/01/14 05:40:23;;;;;;;27.73;19.60;;;;;;;;;;6157926;23;20194;-88
2022/01/14 05:42:51;;;;;;;27.80;20.17;;;;;;;;;;6159410;23;20178;-89
2022/01/14 05:45:19;;;;;;;26.83;20.03;;;;;;;;;;6156732;23;20182;-89
2022/01/14 05:47:46;;;;;;;29.27;21.17;;;;;;;;;;6154799;23;20195;-88
2022/01/14 05:50:15;;;;;;;33.67;23.20;;;;;;;;;;6155372;23;20194;-90
2022/01/14 05:52:44;;;;;;;26.83;19.97;;;;;;;;;;6155619;23;20182;-89
2022/01/14 05:55:13;;;;;;;29.43;20.30;;;;;;;;;;6155963;23;20177;-88
2022/01/14 05:57:41;;;;;;;29.27;19.83;;;;;;;;;;6156419;23;20226;-90
2022/01/14 06:00:10;;;;;;;28.43;19.13;;;;;;;;;;6155841;23;20202;-90
2022/01/14 06:02:38;;;;;;;27.10;19.57;;;;;;;;;;6158386;23;20185;-90
2022/01/14 06:05:05;;;;;;;28.83;19.47;;;;;;;;;;6157233;23;20194;-89
2022/01/14 06:07:33;;;;;;;27.83;19.50;;;;;;;;;;6155836;23;20197;-89
2022/01/14 06:10:03;;;;;;;27.63;18.63;;;;;;;;;;6156660;23;20198;-89
2022/01/14 06:12:30;;;;;;;28.27;19.37;;;;;;;;;;6157893;23;20183;-88
2022/01/14 06:14:59;;;;;;;26.90;19.10;;;;;;;;;;6155304;23;20225;-88
2022/01/14 06:17:27;;;;;;;27.47;18.50;;;;;;;;;;6155035;23;20181;-88
2022/01/14 06:19:54;;;;;;;28.37;18.80;;;;;;;;;;6155732;23;20198;-88
2022/01/14 06:22:21;;;;;;;26.67;19.13;;;;;;;;;;6155818;23;20175;-87
2022/01/14 06:24:49;;;;;;;26.37;19.07;;;;;;;;;;6157256;23;20233;-88
2022/01/14 06:27:32;;;;;;;29.00;19.77;;;;;;;;;;6157496;23;20250;-88
2022/01/14 06:30:03;;;;;;;24.93;18.13;;;;;;;;;;6156569;23;20217;-88
2022/01/14 06:32:31;;;;;;;24.80;17.60;;;;;;;;;;6157665;23;20174;-88
2022/01/14 06:34:58;;;;;;;28.50;19.30;;;;;;;;;;6158099;23;20205;-89
2022/01/14 06:37:26;;;;;;;25.90;18.17;;;;;;;;;;6156325;23;20198;-88
2022/01/14 06:39:54;;;;;;;26.10;19.63;;;;;;;;;;6157312;23;20199;-90
2022/01/14 06:42:22;;;;;;;27.87;19.20;;;;;;;;;;6158694;23;20174;-90
2022/01/14 06:44:49;;;;;;;27.17;19.70;;;;;;;;;;6157706;23;20170;-90
2022/01/14 06:47:18;;;;;;;28.40;19.63;;;;;;;;;;6159179;23;20191;-90
2022/01/14 06:49:46;;;;;;;25.37;18.67;;;;;;;;;;6159162;23;20191;-89
2022/01/14 06:52:13;;;;;;;27.50;19.20;;;;;;;;;;6159089;23;20182;-89
2022/01/14 06:54:41;;;;;;;25.07;18.10;;;;;;;;;;6160124;23;20233;-90
2022/01/14 06:57:11;;;;;;;24.83;18.27;;;;;;;;;;6158512;23;20182;-89
2022/01/14 06:59:38;;;;;;;26.37;17.77;;;;;;;;;;6158500;23;20199;-89
2022/01/14 07:02:06;;;;;;;31.20;19.37;;;;;;;;;;6159211;23;20178;-90
2022/01/14 07:04:35;;;;;;;29.53;19.13;;;;;;;;;;6157753;23;20226;-90
2022/01/14 07:07:02;;;;;;;26.80;19.40;;;;;;;;;;6157209;23;20199;-87
2022/01/14 07:09:31;;;;;;;25.93;18.97;;;;;;;;;;6153556;23;20194;-88
2022/01/14 07:12:00;;;;;;;25.80;18.43;;;;;;;;;;6158242;23;20211;-88
2022/01/14 07:14:29;;;;;;;29.30;20.73;;;;;;;;;;6157483;23;20267;-87
2022/01/14 07:16:56;;;;;;;30.43;20.70;;;;;;;;;;6157621;23;20182;-88
2022/01/14 07:19:25;;;;;;;27.50;19.67;;;;;;;;;;6157445;23;20206;-88
2022/01/14 07:21:54;;;;;;;30.40;19.80;;;;;;;;;;6159264;23;20229;-89
2022/01/14 07:24:25;;;;;;;30.30;19.30;;;;;;;;;;6158072;23;20175;-88
2022/01/14 07:26:56;;;;;;;28.63;19.13;;;;;;;;;;6160640;23;20174;-89
2022/01/14 07:29:23;;;;;;;28.00;19.40;;;;;;;;;;6162060;23;20201;-89
2022/01/14 07:31:51;;;;;;;26.70;19.70;;;;;;;;;;6161969;23;20178;-89
2022/01/14 07:34:19;;;;;;;28.73;19.07;;;;;;;;;;6163210;23;20268;-89
2022/01/14 07:36:46;;;;;;;30.17;19.97;;;;;;;;;;6160295;23;20181;-89
2022/01/14 07:39:15;;;;;;;26.13;18.60;;;;;;;;;;6160986;23;20187;-88
2022/01/14 07:41:42;;;;;;;26.83;20.00;;;;;;;;;;6163727;23;20237;-88
2022/01/14 07:44:11;;;;;;;25.77;18.40;;;;;;;;;;6162243;23;20174;-89
2022/01/14 07:46:39;;;;;;;28.17;18.80;;;;;;;;;;6170603;23;20175;-89
2022/01/14 07:49:06;;;;;;;28.03;18.60;;;;;;;;;;6181485;23;20194;-89
2022/01/14 07:51:33;;;;;;;26.43;19.57;;;;;;;;;;6179813;23;20218;-86
2022/01/14 07:54:05;;;;;;;25.60;18.07;;;;;;;;;;6165918;23;20177;-87
2022/01/14 07:56:34;;;;;;;26.23;17.73;;;;;;;;;;6162672;23;20226;-87
2022/01/14 07:59:06;;;;;;;27.13;18.53;;;;;;;;;;6169853;23;20191;-88
2022/01/14 08:01:34;;;;;;;24.27;17.83;;;;;;;;;;6180676;23;20206;-90
2022/01/14 08:04:04;;;;;;;24.07;18.00;;;;;;;;;;6181437;23;20179;-92
2022/01/14 08:09:07;;;;;;;24.43;17.30;;;;;;;;;;6234207;23;20192;-90
2022/01/14 08:11:36;;;;;;;24.03;17.20;;;;;;;;;;6239344;23;20192;-84
2022/01/14 08:14:03;;;;;;;21.70;16.40;;;;;;;;;;6230032;23;20253;-84
2022/01/14 08:16:31;;;;;;;22.57;16.40;;;;;;;;;;6222864;23;20208;-84
2022/01/14 08:18:58;;;;;;;22.23;15.77;;;;;;;;;;6219998;23;20169;-84
2022/01/14 08:21:32;;;;;;;21.97;16.17;;;;;;;;;;6220188;23;20223;-92
2022/01/14 08:24:01;;;;;;;21.03;15.60;;;;;;;;;;6219407;23;20168;-91
2022/01/14 08:26:29;;;;;;;22.73;15.30;;;;;;;;;;6218803;23;20169;-93
2022/01/14 08:29:08;;;;;;;22.57;15.00;;;;;;;;;;6218008;23;20197;-91
2022/01/14 08:31:36;;;;;;;20.50;15.20;;;;;;;;;;6217890;23;20173;-89
2022/01/14 08:34:03;;;;;;;19.30;14.33;;;;;;;;;;6217104;23;20188;-89
2022/01/14 08:36:31;;;;;;;19.07;14.23;;;;;;;;;;6218209;23;20175;-88
2022/01/14 08:38:59;;;;;;;16.93;14.03;;;;;;;;;;6218196;23;20192;-90
2022/01/14 08:41:29;;;;;;;20.20;14.47;;;;;;;;;;6219158;23;20170;-90
2022/01/14 08:43:57;;;;;;;14.33;12.30;;;;;;;;;;6217378;23;20196;-90
2022/01/14 08:46:27;;;;;;;17.23;13.17;;;;;;;;;;6219939;23;20176;-91
2022/01/14 08:48:58;;;;;;;15.27;12.90;;;;;;;;;;6217612;23;20196;-91
2022/01/14 08:51:27;;;;;;;16.27;12.33;;;;;;;;;;6218247;23;20165;-90
2022/01/14 08:53:55;;;;;;;17.13;12.60;;;;;;;;;;6220266;23;20179;-90
2022/01/14 08:56:28;;;;;;;17.47;12.47;;;;;;;;;;6218306;23;20181;-90
2022/01/14 08:58:55;;;;;;;14.10;11.47;;;;;;;;;;6218244;23;20165;-91
2022/01/14 09:01:23;;;;;;;15.93;12.17;;;;;;;;;;6220270;23;20173;-92
2022/01/14 09:03:52;;;;;;;16.60;11.70;;;;;;;;;;6218299;23;20173;-93
2022/01/14 09:06:22;;;;;;;16.63;12.00;;;;;;;;;;6218904;23;20177;-93
2022/01/14 09:08:50;;;;;;;14.40;11.97;;;;;;;;;;6220027;23;20189;-91
2022/01/14 09:11:18;;;;;;;15.27;11.57;;;;;;;;;;6221821;23;20224;-90
2022/01/14 09:14:02;;;;;;;14.37;11.33;;;;;;;;;;6223219;23;20173;-88
2022/01/14 09:16:34;;;;;;;14.37;10.77;;;;;;;;;;6217413;23;20260;-88
2022/01/14 09:19:04;;;;;;;14.20;10.53;;;;;;;;;;6221189;23;20169;-88
2022/01/14 09:21:32;;;;;;;14.17;11.30;;;;;;;;;;6223316;23;20177;-90
2022/01/14 09:24:05;;;;;;;13.83;10.50;;;;;;;;;;6219185;23;20231;-90
2022/01/14 09:26:32;;;;;;;13.50;10.30;;;;;;;;;;6224591;23;20181;-89
2022/01/14 09:29:00;;;;;;;12.97;9.83;;;;;;;;;;6224870;23;20209;-91
2022/01/14 09:31:28;;;;;;;11.43;9.60;;;;;;;;;;6222742;23;20173;-88
2022/01/14 09:33:56;;;;;;;12.17;9.60;;;;;;;;;;6219530;23;20276;-88
2022/01/14 09:36:28;;;;;;;11.60;10.10;;;;;;;;;;6219293;23;20173;-91
2022/01/14 09:38:56;;;;;;;12.93;10.13;;;;;;;;;;6217601;23;20181;-88
2022/01/14 09:41:24;;;;;;;14.00;10.57;;;;;;;;;;6217745;23;20173;-89
2022/01/14 09:43:54;;;;;;;12.87;10.47;;;;;;;;;;6219853;23;20227;-87
2022/01/14 09:46:24;;;;;;;13.17;11.27;;;;;;;;;;6219533;23;20200;-91
2022/01/14 09:54:26;;;;;;;15.67;11.10;;;;;;;;;;6155339;23;20178;-90
2022/01/14 09:59:35;;;;;;;14.53;10.93;;;;;;;;;;6220643;23;20181;-89
2022/01/14 10:02:05;;;;;;;14.43;11.77;;;;;;;;;;6217784;23;20209;-89
2022/01/14 10:07:19;;;;;;;14.63;11.60;;;;;;;;;;6153777;23;20194;-88
2022/01/14 10:09:54;;;;;;;14.07;12.13;;;;;;;;;;6184348;23;20224;-89
2022/01/14 10:12:22;;;;;;;14.40;12.13;;;;;;;;;;6187714;23;20204;-91
2022/01/14 10:14:54;;;;;;;15.67;12.10;;;;;;;;;;6186267;23;20244;-89
2022/01/14 10:17:26;;;;;;;15.27;11.50;;;;;;;;;;6187340;23;20173;-88
2022/01/14 10:19:58;;;;;;;12.97;11.53;;;;;;;;;;6192367;23;20261;-88
2022/01/14 10:22:28;;;;;;;13.90;11.33;;;;;;;;;;6188906;23;20166;-90
2022/01/14 10:24:57;;;;;;;12.97;10.90;;;;;;;;;;6186784;23;20209;-90
2022/01/14 10:27:31;;;;;;;14.77;11.70;;;;;;;;;;6185325;23;20174;-89
2022/01/14 10:30:07;;;;;;;13.77;10.73;;;;;;;;;;6185767;23;20193;-88
2022/01/14 10:32:36;;;;;;;14.30;10.60;;;;;;;;;;6186741;23;20173;-88
2022/01/14 10:35:05;;;;;;;14.40;10.80;;;;;;;;;;6185562;23;20197;-90
2022/01/14 10:37:35;;;;;;;13.47;11.13;;;;;;;;;;6184505;23;20213;-88
2022/01/14 10:40:04;;;;;;;13.93;11.37;;;;;;;;;;6188744;23;20213;-88
2022/01/14 11:48:01;;;;;;;10.83;9.73;;;;;;;;;;6103227;23;20184;-94
2022/01/14 11:51:00;;;;;;;12.37;10.53;;;;;;;;;;6121748;23;20198;-93
2022/01/14 11:54:02;;;;;;;10.97;9.87;;;;;;;;;;6190121;23;20229;-93
2022/01/14 11:57:04;;;;;;;12.23;10.30;;;;;;;;;;6197915;23;20173;-93
2022/01/14 12:09:38;;;;;;;17.23;12.83;;;;;;;;;;6000802;23;20263;-92
2022/01/14 12:12:36;;;;;;;15.87;12.97;;;;;;;;;;5994255;23;20185;-91
2022/01/14 12:15:55;;;;;;;14.23;12.70;;;;;;;;;;5998566;24;20265;-91
2022/01/14 12:18:49;;;;;;;15.77;13.70;;;;;;;;;;6002034;23;20170;-92
2022/01/14 12:21:33;;;;;;;19.43;15.60;;;;;;;;;;5989258;23;20194;-93
2022/01/14 12:24:30;;;;;;;20.33;15.10;;;;;;;;;;5986947;23;20204;-93
2022/01/14 12:27:18;;;;;;;19.43;16.27;;;;;;;;;;5997961;23;20190;-92
2022/01/14 12:30:06;;;;;;;18.30;14.90;;;;;;;;;;6000311;23;20223;-90
2022/01/14 12:32:58;;;;;;;20.63;15.67;;;;;;;;;;6007546;23;20173;-87
2022/01/14 12:35:39;;;;;;;17.17;15.03;;;;;;;;;;6053871;23;20178;-90
2022/01/14 12:38:06;;;;;;;19.30;15.73;;;;;;;;;;6053131;23;20173;-91
2022/01/14 12:43:24;;;;;;;18.83;15.43;;;;;;;;;;6192135;23;20177;-90
2022/01/14 12:46:11;;;;;;;21.73;16.50;;;;;;;;;;6198945;23;20228;-89
2022/01/14 12:48:46;;;;;;;22.93;16.07;;;;;;;;;;6191417;23;20224;-90
2022/01/14 12:51:40;;;;;;;19.30;15.57;;;;;;;;;;6190721;23;20173;-89
2022/01/14 12:54:10;;;;;;;21.73;15.53;;;;;;;;;;6190235;23;20174;-90
2022/01/14 12:56:39;;;;;;;18.80;15.27;;;;;;;;;;6190318;23;20178;-92
2022/01/14 12:59:14;;;;;;;18.77;15.33;;;;;;;;;;6189307;23;20186;-90
2022/01/14 13:01:47;;;;;;;22.13;16.07;;;;;;;;;;6188962;23;20166;-91
2022/01/14 13:04:23;;;;;;;17.13;15.20;;;;;;;;;;6187758;23;20170;-87
2022/01/14 13:06:57;;;;;;;20.03;15.13;;;;;;;;;;6189260;23;20185;-89
2022/01/14 13:09:30;;;;;;;16.70;14.53;;;;;;;;;;6189764;23;20194;-88
2022/01/14 13:11:59;;;;;;;18.23;15.03;;;;;;;;;;6189643;23;20177;-88
2022/01/14 13:14:28;;;;;;;15.80;13.47;;;;;;;;;;6189822;23;20178;-87
2022/01/14 13:17:01;;;;;;;18.97;14.73;;;;;;;;;;6188519;23;20178;-93
2022/01/14 13:19:32;;;;;;;18.87;15.40;;;;;;;;;;6189015;23;20189;-92
2022/01/14 13:22:00;;;;;;;18.93;15.27;;;;;;;;;;6190723;23;20174;-90
2022/01/14 13:27:30;;;;;;;16.23;14.10;;;;;;;;;;6178307;23;20166;-87
2022/01/14 13:29:59;;;;;;;15.43;13.77;;;;;;;;;;6189167;23;20193;-87
2022/01/14 13:32:27;;;;;;;17.17;14.63;;;;;;;;;;6191543;23;20174;-89
2022/01/14 13:35:10;;;;;;;15.43;13.30;;;;;;;;;;6190860;23;20174;-89
2022/01/14 13:40:23;;;;;;;16.17;13.93;;;;;;;;;;6187422;23;20274;-88
2022/01/14 13:43:06;;;;;;;16.20;14.17;;;;;;;;;;6186320;23;20174;-87
2022/01/14 13:45:34;;;;;;;16.80;14.67;;;;;;;;;;6186811;23;20169;-89
2022/01/14 13:48:10;;;;;;;18.27;15.27;;;;;;;;;;6186729;23;20170;-89
2022/01/14 13:50:52;;;;;;;16.67;14.60;;;;;;;;;;6187151;23;20252;-89
2022/01/14 13:53:38;;;;;;;16.00;14.10;;;;;;;;;;6187814;23;20174;-90
2022/01/14 13:56:09;;;;;;;15.60;13.60;;;;;;;;;;6189311;23;20200;-89
2022/01/14 13:58:42;;;;;;;17.53;15.20;;;;;;;;;;6188428;23;20164;-88
2022/01/14 14:01:20;;;;;;;19.70;17.33;;;;;;;;;;6191779;23;20162;-89
2022/01/14 14:03:51;;;;;;;18.73;16.03;;;;;;;;;;6192634;23;20162;-89
2022/01/14 14:06:25;;;;;;;20.50;16.77;;;;;;;;;;6189579;23;20162;-89
2022/01/14 14:09:01;;;;;;;18.40;16.20;;;;;;;;;;6188926;23;20661;-89
2022/01/14 14:17:16;;;;;;;24.20;16.97;;;;;;;;;;6067050;23;20232;-88
2022/01/14 14:19:44;;;;;;;18.93;16.80;;;;;;;;;;6136259;23;20213;-87
2022/01/14 14:22:15;;;;;;;19.40;16.33;;;;;;;;;;6187059;23;20257;-88
2022/01/14 14:24:54;;;;;;;23.17;17.27;;;;;;;;;;6185874;23;20176;-88
2022/01/14 14:27:22;;;;;;;21.63;16.83;;;;;;;;;;6186119;23;20177;-87
2022/01/14 14:29:51;;;;;;;19.70;16.57;;;;;;;;;;6187876;23;20197;-88
2022/01/14 14:32:21;;;;;;;20.90;16.43;;;;;;;;;;6187191;23;20174;-88
2022/01/14 14:34:51;;;;;;;17.80;15.93;;;;;;;;;;6188793;23;20245;-87
2022/01/14 14:37:20;;;;;;;19.20;16.37;;;;;;;;;;6189214;23;20249;-85
2022/01/14 14:39:48;;;;;;;19.67;16.70;;;;;;;;;;6188927;23;20193;-87
2022/01/14 14:42:17;;;;;;;20.37;17.43;;;;;;;;;;6189853;23;20174;-88
2022/01/14 14:44:54;;;;;;;21.63;16.57;;;;;;;;;;6189578;23;20174;-88
2022/01/14 14:47:24;;;;;;;21.63;16.77;;;;;;;;;;6190652;23;20182;-87
2022/01/14 14:49:54;;;;;;;23.27;16.93;;;;;;;;;;6192918;23;20197;-88
2022/01/14 14:52:23;;;;;;;22.47;17.93;;;;;;;;;;6191178;23;20170;-90
2022/01/14 14:54:51;;;;;;;23.27;17.43;;;;;;;;;;6187175;23;20241;-87
2022/01/14 14:57:21;;;;;;;20.07;17.40;;;;;;;;;;6185877;23;20174;-89
2022/01/14 14:59:48;;;;;;;22.27;18.77;;;;;;;;;;6188861;23;20250;-90
2022/01/14 15:02:18;;;;;;;18.97;16.43;;;;;;;;;;6186387;23;20178;-90
2022/01/14 15:04:45;;;;;;;19.03;16.10;;;;;;;;;;6187492;23;20174;-88
2022/01/14 15:07:13;;;;;;;21.03;16.90;;;;;;;;;;6191836;23;20174;-89
2022/01/14 15:09:43;;;;;;;18.00;16.07;;;;;;;;;;6189081;23;20252;-89
2022/01/14 15:12:12;;;;;;;19.57;16.57;;;;;;;;;;6188622;23;20174;-89
2022/01/14 15:14:43;;;;;;;22.40;17.47;;;;;;;;;;6189065;23;20192;-90
2022/01/14 15:20:13;;;;;;;22.80;17.37;;;;;;;;;;6188478;23;20188;-90
2022/01/14 15:22:40;;;;;;;20.07;17.27;;;;;;;;;;6187364;23;20236;-88
2022/01/14 15:25:10;;;;;;;22.63;17.50;;;;;;;;;;6187809;23;20236;-88
2022/01/14 15:27:37;;;;;;;17.80;15.77;;;;;;;;;;6187446;23;20655;-88
2022/01/14 15:30:05;;;;;;;30.37;18.20;;;;;;;;;;6187629;23;20198;-87
2022/01/14 15:32:35;;;;;;;21.07;17.97;;;;;;;;;;6187033;23;20181;-88
2022/01/14 15:35:02;;;;;;;23.43;17.50;;;;;;;;;;6188132;23;20174;-88
2022/01/14 15:37:29;;;;;;;21.10;16.47;;;;;;;;;;6186278;23;20178;-88
2022/01/14 15:39:57;;;;;;;23.50;17.50;;;;;;;;;;6186776;23;20202;-87
2022/01/14 15:42:26;;;;;;;23.53;17.47;;;;;;;;;;6188941;23;20256;-88
2022/01/14 15:44:53;;;;;;;23.17;17.53;;;;;;;;;;6187659;23;20174;-87
2022/01/14 15:47:20;;;;;;;22.00;17.33;;;;;;;;;;6189922;23;20181;-86
2022/01/14 15:49:48;;;;;;;25.87;17.37;;;;;;;;;;6189506;23;20194;-86
2022/01/14 15:52:15;;;;;;;19.77;16.43;;;;;;;;;;6189106;23;20259;-87
2022/01/14 15:54:43;;;;;;;23.77;17.70;;;;;;;;;;6189338;23;20174;-86
2022/01/14 15:57:10;;;;;;;22.40;19.03;;;;;;;;;;6189321;23;20193;-86
2022/01/14 15:59:39;;;;;;;25.37;19.30;;;;;;;;;;6189715;23;20194;-87
2022/01/14 16:02:07;;;;;;;22.83;18.40;;;;;;;;;;6189968;23;20170;-86
2022/01/14 16:04:38;;;;;;;22.47;18.47;;;;;;;;;;6189690;23;20174;-87
2022/01/14 16:07:07;;;;;;;23.57;17.47;;;;;;;;;;6188926;23;20224;-86
2022/01/14 16:09:34;;;;;;;21.47;18.03;;;;;;;;;;6187271;23;20205;-89
2022/01/14 16:12:02;;;;;;;25.10;18.90;;;;;;;;;;6192770;23;20169;-91
2022/01/14 16:14:33;;;;;;;27.43;19.83;;;;;;;;;;6189338;23;20174;-87
2022/01/14 16:17:02;;;;;;;28.10;20.10;;;;;;;;;;6188101;23;20178;-88
2022/01/14 16:19:30;;;;;;;25.83;20.53;;;;;;;;;;6190285;23;20193;-90
2022/01/14 16:21:57;;;;;;;23.27;19.03;;;;;;;;;;6188592;23;20170;-90
2022/01/14 16:24:25;;;;;;;22.63;18.50;;;;;;;;;;6187364;23;20177;-90
2022/01/14 16:26:52;;;;;;;20.90;16.97;;;;;;;;;;6194857;23;20724;-84
2022/01/14 16:29:20;;;;;;;25.60;19.73;;;;;;;;;;6218043;23;20196;-82
2022/01/14 16:31:55;;;;;;;28.73;22.80;;;;;;;;;;6218814;23;20251;-85
2022/01/14 16:34:26;;;;;;;30.30;21.70;;;;;;;;;;6217847;23;20192;-84
2022/01/14 16:36:53;;;;;;;24.60;19.23;;;;;;;;;;6218756;23;20189;-84
2022/01/14 16:39:21;;;;;;;25.00;19.30;;;;;;;;;;6217278;23;20176;-85
2022/01/14 16:41:49;;;;;;;24.97;19.00;;;;;;;;;;6218072;23;20169;-83